sensor_id;sensor_type;location;lat;lon;timestamp;temperature;humidity
22676;DHT22;12521;43.310;21.876;2023-08-07T00:02:29;18.1;96.0
22676;DHT22;12521;43.310;21.876;2023-08-07T00:07:05;18.1;96.0
22676;DHT22;12521;43.310;21.876;2023-08-07T00:11:42;18.0;96.0
22676;DHT22;12521;43.310;21.876;2023-08-07T00:16:18;18.0;96.0
22676;DHT22;12521;43.310;21.876;2023-08-07T00:20:55;17.9;96.0
22676;DHT22;12521;43.310;21.876;2023-08-07T00:25:31;17.9;96.0
22676;DHT22;12521;43.310;21.876;2023-08-07T00:30:10;17.8;96.0
22676;DHT22;12521;43.310;21.876;2023-08-07T00:34:48;17.8;96.0
22676;DHT22;12521;43.310;21.876;2023-08-07T00:39:24;17.9;96.0
22676;DHT22;12521;43.310;21.876;2023-08-07T00:44:01;17.9;96.0
22676;DHT22;12521;43.310;21.876;2023-08-07T00:48:38;18.0;96.0
22676;DHT22;12521;43.310;21.876;2023-08-07T00:53:15;18.0;96.0
22676;DHT22;12521;43.310;21.876;2023-08-07T00:57:52;18.0;96.0
22676;DHT22;12521;43.310;21.876;2023-08-07T01:02:29;18.0;96.0
22676;DHT22;12521;43.310;21.876;2023-08-07T01:07:07;18.0;96.0
22676;DHT22;12521;43.310;21.876;2023-08-07T01:11:50;18.0;96.0
22676;DHT22;12521;43.310;21.876;2023-08-07T01:17:05;18.0;96.0
22676;DHT22;12521;43.310;21.876;2023-08-07T01:22:14;18.0;96.0
22676;DHT22;12521;43.310;21.876;2023-08-07T01:27:14;18.0;96.0
22676;DHT22;12521;43.310;21.876;2023-08-07T01:32:24;18.0;96.0
22676;DHT22;12521;43.310;21.876;2023-08-07T01:37:23;17.8;96.0
22676;DHT22;12521;43.310;21.876;2023-08-07T01:42:10;17.8;96.0
22676;DHT22;12521;43.310;21.876;2023-08-07T01:46:47;17.8;96.0
22676;DHT22;12521;43.310;21.876;2023-08-07T01:51:24;17.7;96.0
22676;DHT22;12521;43.310;21.876;2023-08-07T01:56:01;17.7;96.0
22676;DHT22;12521;43.310;21.876;2023-08-07T02:00:37;17.8;96.0
22676;DHT22;12521;43.310;21.876;2023-08-07T02:05:15;17.8;96.0
22676;DHT22;12521;43.310;21.876;2023-08-07T02:09:51;17.8;96.0
22676;DHT22;12521;43.310;21.876;2023-08-07T02:14:27;17.8;96.0
22676;DHT22;12521;43.310;21.876;2023-08-07T02:19:04;17.6;96.0
22676;DHT22;12521;43.310;21.876;2023-08-07T02:23:40;17.6;96.0
22676;DHT22;12521;43.310;21.876;2023-08-07T02:28:16;17.5;96.0
22676;DHT22;12521;43.310;21.876;2023-08-07T02:32:52;17.5;96.0
22676;DHT22;12521;43.310;21.876;2023-08-07T02:37:29;17.4;96.0
22676;DHT22;12521;43.310;21.876;2023-08-07T02:42:06;17.4;96.0
22676;DHT22;12521;43.310;21.876;2023-08-07T02:46:43;17.4;96.0
22676;DHT22;12521;43.310;21.876;2023-08-07T02:51:19;17.3;96.0
22676;DHT22;12521;43.310;21.876;2023-08-07T02:55:56;17.3;96.0
22676;DHT22;12521;43.310;21.876;2023-08-07T03:00:34;17.3;96.0
22676;DHT22;12521;43.310;21.876;2023-08-07T03:05:12;17.3;96.0
22676;DHT22;12521;43.310;21.876;2023-08-07T03:09:48;17.3;96.0
22676;DHT22;12521;43.310;21.876;2023-08-07T03:14:25;17.3;96.0
22676;DHT22;12521;43.310;21.876;2023-08-07T03:19:01;17.2;96.0
22676;DHT22;12521;43.310;21.876;2023-08-07T03:23:37;17.2;96.0
22676;DHT22;12521;43.310;21.876;2023-08-07T03:28:14;17.0;96.0
22676;DHT22;12521;43.310;21.876;2023-08-07T03:32:51;17.0;96.0
22676;DHT22;12521;43.310;21.876;2023-08-07T03:37:27;17.0;96.0
22676;DHT22;12521;43.310;21.876;2023-08-07T03:42:04;17.0;96.0
22676;DHT22;12521;43.310;21.876;2023-08-07T03:46:42;17.0;96.0
22676;DHT22;12521;43.310;21.876;2023-08-07T03:51:18;16.9;96.0
22676;DHT22;12521;43.310;21.876;2023-08-07T03:55:55;16.9;96.0
22676;DHT22;12521;43.310;21.876;2023-08-07T04:00:32;16.8;96.0
22676;DHT22;12521;43.310;21.876;2023-08-07T04:05:09;16.8;96.0
22676;DHT22;12521;43.310;21.876;2023-08-07T04:09:46;16.6;96.0
22676;DHT22;12521;43.310;21.876;2023-08-07T04:14:22;16.6;96.0
22676;DHT22;12521;43.310;21.876;2023-08-07T04:18:59;16.6;96.0
22676;DHT22;12521;43.310;21.876;2023-08-07T04:23:35;16.6;96.0
22676;DHT22;12521;43.310;21.876;2023-08-07T04:28:12;16.5;96.0
22676;DHT22;12521;43.310;21.876;2023-08-07T04:32:49;16.5;96.0
22676;DHT22;12521;43.310;21.876;2023-08-07T04:37:26;16.5;96.0
22676;DHT22;12521;43.310;21.876;2023-08-07T04:42:03;16.6;96.0
22676;DHT22;12521;43.310;21.876;2023-08-07T04:46:40;16.6;96.0
22676;DHT22;12521;43.310;21.876;2023-08-07T04:51:17;16.7;96.0
22676;DHT22;12521;43.310;21.876;2023-08-07T04:55:53;16.7;96.0
22676;DHT22;12521;43.310;21.876;2023-08-07T05:00:29;16.9;96.0
22676;DHT22;12521;43.310;21.876;2023-08-07T05:05:07;16.9;96.0
22676;DHT22;12521;43.310;21.876;2023-08-07T05:09:44;17.1;96.0
22676;DHT22;12521;43.310;21.876;2023-08-07T05:14:20;17.1;96.0
22676;DHT22;12521;43.310;21.876;2023-08-07T05:18:56;17.2;96.0
22676;DHT22;12521;43.310;21.876;2023-08-07T05:23:33;17.2;96.0
22676;DHT22;12521;43.310;21.876;2023-08-07T05:28:09;17.4;96.0
22676;DHT22;12521;43.310;21.876;2023-08-07T05:32:45;17.4;96.0
22676;DHT22;12521;43.310;21.876;2023-08-07T05:37:22;17.4;96.0
22676;DHT22;12521;43.310;21.876;2023-08-07T05:41:58;17.5;96.0
22676;DHT22;12521;43.310;21.876;2023-08-07T05:46:34;17.5;96.0
22676;DHT22;12521;43.310;21.876;2023-08-07T05:51:11;17.6;96.0
22676;DHT22;12521;43.310;21.876;2023-08-07T05:55:47;17.6;96.0
22676;DHT22;12521;43.310;21.876;2023-08-07T06:00:23;17.8;96.0
22676;DHT22;12521;43.310;21.876;2023-08-07T06:05:00;17.8;96.0
22676;DHT22;12521;43.310;21.876;2023-08-07T06:09:36;18.1;96.0
22676;DHT22;12521;43.310;21.876;2023-08-07T06:14:13;18.1;96.0
22676;DHT22;12521;43.310;21.876;2023-08-07T06:18:49;18.2;96.0
22676;DHT22;12521;43.310;21.876;2023-08-07T06:23:26;18.2;96.0
22676;DHT22;12521;43.310;21.876;2023-08-07T06:28:03;18.3;96.0
22676;DHT22;12521;43.310;21.876;2023-08-07T06:32:40;18.3;96.0
22676;DHT22;12521;43.310;21.876;2023-08-07T06:37:16;18.3;96.0
22676;DHT22;12521;43.310;21.876;2023-08-07T06:41:53;18.5;96.0
22676;DHT22;12521;43.310;21.876;2023-08-07T06:46:29;18.5;96.0
22676;DHT22;12521;43.310;21.876;2023-08-07T06:51:06;18.6;96.0
22676;DHT22;12521;43.310;21.876;2023-08-07T06:55:44;18.6;96.0
22676;DHT22;12521;43.310;21.876;2023-08-07T07:00:20;18.8;96.0
22676;DHT22;12521;43.310;21.876;2023-08-07T07:04:57;18.8;96.0
22676;DHT22;12521;43.310;21.876;2023-08-07T07:09:34;19.1;96.0
22676;DHT22;12521;43.310;21.876;2023-08-07T07:14:10;19.1;96.0
22676;DHT22;12521;43.310;21.876;2023-08-07T07:18:47;19.3;96.0
22676;DHT22;12521;43.310;21.876;2023-08-07T07:23:25;19.3;96.0
22676;DHT22;12521;43.310;21.876;2023-08-07T07:28:03;19.5;96.0
22676;DHT22;12521;43.310;21.876;2023-08-07T07:32:39;19.5;96.0
22676;DHT22;12521;43.310;21.876;2023-08-07T07:37:15;19.5;96.0
22676;DHT22;12521;43.310;21.876;2023-08-07T07:41:51;19.6;96.0
22676;DHT22;12521;43.310;21.876;2023-08-07T07:46:28;19.6;96.0
22676;DHT22;12521;43.310;21.876;2023-08-07T07:51:04;19.8;96.0
22676;DHT22;12521;43.310;21.876;2023-08-07T07:55:46;19.8;96.0
22676;DHT22;12521;43.310;21.876;2023-08-07T08:00:23;19.8;96.0
22676;DHT22;12521;43.310;21.876;2023-08-07T08:04:59;19.8;96.0
22676;DHT22;12521;43.310;21.876;2023-08-07T08:09:36;19.9;96.0
22676;DHT22;12521;43.310;21.876;2023-08-07T08:14:12;19.9;96.0
22676;DHT22;12521;43.310;21.876;2023-08-07T08:18:48;20.1;96.0
22676;DHT22;12521;43.310;21.876;2023-08-07T08:23:25;20.1;96.0
22676;DHT22;12521;43.310;21.876;2023-08-07T08:28:01;20.3;96.0
22676;DHT22;12521;43.310;21.876;2023-08-07T08:32:39;20.3;96.0
22676;DHT22;12521;43.310;21.876;2023-08-07T08:37:15;20.3;96.0
22676;DHT22;12521;43.310;21.876;2023-08-07T08:41:53;20.6;96.0
22676;DHT22;12521;43.310;21.876;2023-08-07T08:46:32;20.6;96.0
22676;DHT22;12521;43.310;21.876;2023-08-07T08:51:13;21.0;96.0
22676;DHT22;12521;43.310;21.876;2023-08-07T08:55:52;21.0;96.0
22676;DHT22;12521;43.310;21.876;2023-08-07T09:00:29;21.2;96.0
22676;DHT22;12521;43.310;21.876;2023-08-07T09:05:08;21.2;96.0
22676;DHT22;12521;43.310;21.876;2023-08-07T09:09:47;21.4;96.0
22676;DHT22;12521;43.310;21.876;2023-08-07T09:14:36;21.4;96.0
22676;DHT22;12521;43.310;21.876;2023-08-07T09:19:33;21.6;96.0
22676;DHT22;12521;43.310;21.876;2023-08-07T09:24:11;21.6;96.0
22676;DHT22;12521;43.310;21.876;2023-08-07T09:28:48;21.8;96.0
22676;DHT22;12521;43.310;21.876;2023-08-07T09:33:30;21.8;96.0
22676;DHT22;12521;43.310;21.876;2023-08-07T09:38:07;22.2;96.0
22676;DHT22;12521;43.310;21.876;2023-08-07T09:42:44;22.2;96.0
22676;DHT22;12521;43.310;21.876;2023-08-07T09:47:30;22.2;96.0
22676;DHT22;12521;43.310;21.876;2023-08-07T09:52:10;22.7;96.0
22676;DHT22;12521;43.310;21.876;2023-08-07T09:56:56;22.7;96.0
22676;DHT22;12521;43.310;21.876;2023-08-07T10:01:37;23.0;96.0
22676;DHT22;12521;43.310;21.876;2023-08-07T10:06:14;23.0;96.0
22676;DHT22;12521;43.310;21.876;2023-08-07T10:10:52;23.4;96.0
22676;DHT22;12521;43.310;21.876;2023-08-07T10:15:32;23.4;96.0
22676;DHT22;12521;43.310;21.876;2023-08-07T10:20:11;23.2;96.0
22676;DHT22;12521;43.310;21.876;2023-08-07T10:24:50;23.2;96.0
22676;DHT22;12521;43.310;21.876;2023-08-07T10:29:36;23.0;96.0
22676;DHT22;12521;43.310;21.876;2023-08-07T10:34:17;23.0;96.0
22676;DHT22;12521;43.310;21.876;2023-08-07T10:39:06;22.8;96.0
22676;DHT22;12521;43.310;21.876;2023-08-07T10:43:47;22.8;96.0
22676;DHT22;12521;43.310;21.876;2023-08-07T10:48:24;22.6;96.0
22676;DHT22;12521;43.310;21.876;2023-08-07T10:53:04;22.6;96.0
22676;DHT22;12521;43.310;21.876;2023-08-07T10:57:41;22.6;96.0
22676;DHT22;12521;43.310;21.876;2023-08-07T11:02:24;22.4;96.0
22676;DHT22;12521;43.310;21.876;2023-08-07T11:07:07;22.4;96.0
22676;DHT22;12521;43.310;21.876;2023-08-07T11:11:46;22.2;96.0
22676;DHT22;12521;43.310;21.876;2023-08-07T11:16:25;22.2;96.0
22676;DHT22;12521;43.310;21.876;2023-08-07T11:21:02;22.4;96.0
22676;DHT22;12521;43.310;21.876;2023-08-07T11:25:39;22.4;96.0
22676;DHT22;12521;43.310;21.876;2023-08-07T11:30:17;22.5;96.0
22676;DHT22;12521;43.310;21.876;2023-08-07T11:34:54;22.5;96.0
22676;DHT22;12521;43.310;21.876;2023-08-07T11:39:30;22.7;96.0
22676;DHT22;12521;43.310;21.876;2023-08-07T11:44:08;22.7;96.0
22676;DHT22;12521;43.310;21.876;2023-08-07T11:48:46;22.9;96.0
22676;DHT22;12521;43.310;21.876;2023-08-07T11:53:25;22.9;96.0
22676;DHT22;12521;43.310;21.876;2023-08-07T11:58:12;23.0;96.0
22676;DHT22;12521;43.310;21.876;2023-08-07T12:02:49;23.0;96.0
22676;DHT22;12521;43.310;21.876;2023-08-07T12:07:27;23.0;96.0
22676;DHT22;12521;43.310;21.876;2023-08-07T12:12:07;23.0;96.0
22676;DHT22;12521;43.310;21.876;2023-08-07T12:16:47;23.0;96.0
22676;DHT22;12521;43.310;21.876;2023-08-07T12:21:26;23.0;96.0
22676;DHT22;12521;43.310;21.876;2023-08-07T12:26:06;23.0;96.0
22676;DHT22;12521;43.310;21.876;2023-08-07T12:30:46;23.0;96.0
22676;DHT22;12521;43.310;21.876;2023-08-07T12:35:26;23.0;96.0
22676;DHT22;12521;43.310;21.876;2023-08-07T12:40:04;23.2;96.0
22676;DHT22;12521;43.310;21.876;2023-08-07T12:44:42;23.2;96.0
22676;DHT22;12521;43.310;21.876;2023-08-07T12:49:18;23.3;96.0
22676;DHT22;12521;43.310;21.876;2023-08-07T12:53:54;23.3;96.0
22676;DHT22;12521;43.310;21.876;2023-08-07T12:58:30;23.2;96.0
22676;DHT22;12521;43.310;21.876;2023-08-07T13:03:06;23.2;96.0
22676;DHT22;12521;43.310;21.876;2023-08-07T13:07:43;23.2;96.0
22676;DHT22;12521;43.310;21.876;2023-08-07T13:12:21;23.1;96.0
22676;DHT22;12521;43.310;21.876;2023-08-07T13:16:57;23.1;96.0
22676;DHT22;12521;43.310;21.876;2023-08-07T13:21:34;23.0;96.0
22676;DHT22;12521;43.310;21.876;2023-08-07T13:26:10;23.0;96.0
22676;DHT22;12521;43.310;21.876;2023-08-07T13:30:47;23.0;96.0
22676;DHT22;12521;43.310;21.876;2023-08-07T13:35:24;23.0;96.0
22676;DHT22;12521;43.310;21.876;2023-08-07T13:40:00;22.8;96.0
22676;DHT22;12521;43.310;21.876;2023-08-07T13:44:37;22.8;96.0
22676;DHT22;12521;43.310;21.876;2023-08-07T13:49:13;22.7;96.0
22676;DHT22;12521;43.310;21.876;2023-08-07T13:53:50;22.7;96.0
22676;DHT22;12521;43.310;21.876;2023-08-07T13:58:27;22.8;96.0
22676;DHT22;12521;43.310;21.876;2023-08-07T14:03:04;22.8;96.0
22676;DHT22;12521;43.310;21.876;2023-08-07T14:07:41;22.8;96.0
22676;DHT22;12521;43.310;21.876;2023-08-07T14:12:17;22.8;96.0
22676;DHT22;12521;43.310;21.876;2023-08-07T14:16:54;22.8;96.0
22676;DHT22;12521;43.310;21.876;2023-08-07T14:21:31;23.3;96.0
22676;DHT22;12521;43.310;21.876;2023-08-07T14:26:08;23.3;96.0
22676;DHT22;12521;43.310;21.876;2023-08-07T14:30:45;23.8;96.0
22676;DHT22;12521;43.310;21.876;2023-08-07T14:35:25;23.8;96.0
22676;DHT22;12521;43.310;21.876;2023-08-07T14:40:03;24.3;96.0
22676;DHT22;12521;43.310;21.876;2023-08-07T14:44:44;24.3;96.0
22676;DHT22;12521;43.310;21.876;2023-08-07T14:49:21;24.8;96.0
22676;DHT22;12521;43.310;21.876;2023-08-07T14:53:58;24.8;96.0
22676;DHT22;12521;43.310;21.876;2023-08-07T14:58:35;24.7;96.0
22676;DHT22;12521;43.310;21.876;2023-08-07T15:03:11;24.7;96.0
22676;DHT22;12521;43.310;21.876;2023-08-07T15:07:48;24.7;96.0
22676;DHT22;12521;43.310;21.876;2023-08-07T15:12:25;24.6;96.0
22676;DHT22;12521;43.310;21.876;2023-08-07T15:17:03;24.6;96.0
22676;DHT22;12521;43.310;21.876;2023-08-07T15:21:41;24.5;96.0
22676;DHT22;12521;43.310;21.876;2023-08-07T15:26:18;24.5;96.0
22676;DHT22;12521;43.310;21.876;2023-08-07T15:30:54;24.4;96.0
22676;DHT22;12521;43.310;21.876;2023-08-07T15:35:31;24.4;96.0
22676;DHT22;12521;43.310;21.876;2023-08-07T15:40:09;23.7;96.0
22676;DHT22;12521;43.310;21.876;2023-08-07T15:44:46;23.7;96.0
22676;DHT22;12521;43.310;21.876;2023-08-07T15:49:23;23.0;96.0
22676;DHT22;12521;43.310;21.876;2023-08-07T15:54:00;23.0;96.0
22676;DHT22;12521;43.310;21.876;2023-08-07T15:58:36;22.7;96.0
22676;DHT22;12521;43.310;21.876;2023-08-07T16:03:13;22.7;96.0
22676;DHT22;12521;43.310;21.876;2023-08-07T16:07:50;22.7;96.0
22676;DHT22;12521;43.310;21.876;2023-08-07T16:12:26;22.4;96.0
22676;DHT22;12521;43.310;21.876;2023-08-07T16:17:03;22.4;96.0
22676;DHT22;12521;43.310;21.876;2023-08-07T16:21:41;22.2;96.0
22676;DHT22;12521;43.310;21.876;2023-08-07T16:26:17;22.2;96.0
22676;DHT22;12521;43.310;21.876;2023-08-07T16:30:54;21.9;96.0
22676;DHT22;12521;43.310;21.876;2023-08-07T16:35:30;21.9;96.0
22676;DHT22;12521;43.310;21.876;2023-08-07T16:40:08;21.7;96.0
22676;DHT22;12521;43.310;21.876;2023-08-07T16:44:48;21.7;96.0
22676;DHT22;12521;43.310;21.876;2023-08-07T16:49:25;21.5;96.0
22676;DHT22;12521;43.310;21.876;2023-08-07T16:54:02;21.5;96.0
22676;DHT22;12521;43.310;21.876;2023-08-07T16:58:39;21.3;96.0
22676;DHT22;12521;43.310;21.876;2023-08-07T17:03:15;21.3;96.0
22676;DHT22;12521;43.310;21.876;2023-08-07T17:07:52;21.3;96.0
22676;DHT22;12521;43.310;21.876;2023-08-07T17:12:28;21.1;96.0
22676;DHT22;12521;43.310;21.876;2023-08-07T17:17:05;21.1;96.0
22676;DHT22;12521;43.310;21.876;2023-08-07T17:21:42;20.9;96.0
22676;DHT22;12521;43.310;21.876;2023-08-07T17:26:18;20.9;96.0
22676;DHT22;12521;43.310;21.876;2023-08-07T17:30:56;20.7;96.0
22676;DHT22;12521;43.310;21.876;2023-08-07T17:35:33;20.7;96.0
22676;DHT22;12521;43.310;21.876;2023-08-07T17:40:11;20.6;96.0
22676;DHT22;12521;43.310;21.876;2023-08-07T17:44:48;20.6;96.0
22676;DHT22;12521;43.310;21.876;2023-08-07T17:49:24;20.5;96.0
22676;DHT22;12521;43.310;21.876;2023-08-07T17:54:01;20.5;96.0
22676;DHT22;12521;43.310;21.876;2023-08-07T17:58:37;20.4;96.0
22676;DHT22;12521;43.310;21.876;2023-08-07T18:03:13;20.4;96.0
22676;DHT22;12521;43.310;21.876;2023-08-07T18:07:50;20.4;96.0
22676;DHT22;12521;43.310;21.876;2023-08-07T18:12:26;20.4;96.0
22676;DHT22;12521;43.310;21.876;2023-08-07T18:17:02;20.4;96.0
22676;DHT22;12521;43.310;21.876;2023-08-07T18:21:39;20.2;96.0
22676;DHT22;12521;43.310;21.876;2023-08-07T18:26:15;20.2;96.0
22676;DHT22;12521;43.310;21.876;2023-08-07T18:30:51;20.0;96.0
22676;DHT22;12521;43.310;21.876;2023-08-07T18:35:28;20.0;96.0
22676;DHT22;12521;43.310;21.876;2023-08-07T18:40:07;19.1;96.0
22676;DHT22;12521;43.310;21.876;2023-08-07T18:44:46;19.1;96.0
22676;DHT22;12521;43.310;21.876;2023-08-07T18:49:22;18.2;96.0
22676;DHT22;12521;43.310;21.876;2023-08-07T18:53:58;18.2;96.0
22676;DHT22;12521;43.310;21.876;2023-08-07T18:58:35;18.1;96.0
22676;DHT22;12521;43.310;21.876;2023-08-07T19:03:12;18.1;96.0
22676;DHT22;12521;43.310;21.876;2023-08-07T19:07:48;18.1;96.0
22676;DHT22;12521;43.310;21.876;2023-08-07T19:12:25;18.0;96.0
22676;DHT22;12521;43.310;21.876;2023-08-07T19:17:01;18.0;96.0
22676;DHT22;12521;43.310;21.876;2023-08-07T19:21:40;18.0;96.0
22676;DHT22;12521;43.310;21.876;2023-08-07T19:26:16;18.0;96.0
22676;DHT22;12521;43.310;21.876;2023-08-07T19:30:53;18.0;96.0
22676;DHT22;12521;43.310;21.876;2023-08-07T19:35:29;18.0;96.0
22676;DHT22;12521;43.310;21.876;2023-08-07T19:40:07;18.0;96.0
22676;DHT22;12521;43.310;21.876;2023-08-07T19:44:46;18.0;96.0
22676;DHT22;12521;43.310;21.876;2023-08-07T19:49:22;17.9;96.0
22676;DHT22;12521;43.310;21.876;2023-08-07T19:53:59;17.9;96.0
22676;DHT22;12521;43.310;21.876;2023-08-07T19:58:36;17.8;96.0
22676;DHT22;12521;43.310;21.876;2023-08-07T20:03:13;17.8;96.0
22676;DHT22;12521;43.310;21.876;2023-08-07T20:07:50;17.8;96.0
22676;DHT22;12521;43.310;21.876;2023-08-07T20:12:26;17.7;96.0
22676;DHT22;12521;43.310;21.876;2023-08-07T20:17:05;17.7;96.0
22676;DHT22;12521;43.310;21.876;2023-08-07T20:21:42;17.5;96.0
22676;DHT22;12521;43.310;21.876;2023-08-07T20:26:19;17.5;96.0
22676;DHT22;12521;43.310;21.876;2023-08-07T20:30:56;17.4;96.0
22676;DHT22;12521;43.310;21.876;2023-08-07T20:35:33;17.4;96.0
22676;DHT22;12521;43.310;21.876;2023-08-07T20:40:10;17.3;96.0
22676;DHT22;12521;43.310;21.876;2023-08-07T20:44:47;17.3;96.0
22676;DHT22;12521;43.310;21.876;2023-08-07T20:49:23;17.2;96.0
22676;DHT22;12521;43.310;21.876;2023-08-07T20:54:00;17.2;96.0
22676;DHT22;12521;43.310;21.876;2023-08-07T20:58:36;17.2;96.0
22676;DHT22;12521;43.310;21.876;2023-08-07T21:03:13;17.2;96.0
22676;DHT22;12521;43.310;21.876;2023-08-07T21:07:49;17.2;96.0
22676;DHT22;12521;43.310;21.876;2023-08-07T21:12:26;17.3;96.0
22676;DHT22;12521;43.310;21.876;2023-08-07T21:17:04;17.3;96.0
22676;DHT22;12521;43.310;21.876;2023-08-07T21:21:41;17.0;96.0
22676;DHT22;12521;43.310;21.876;2023-08-07T21:26:18;17.0;96.0
22676;DHT22;12521;43.310;21.876;2023-08-07T21:30:55;16.8;96.0
22676;DHT22;12521;43.310;21.876;2023-08-07T21:35:32;16.8;96.0
22676;DHT22;12521;43.310;21.876;2023-08-07T21:40:10;16.7;96.0
22676;DHT22;12521;43.310;21.876;2023-08-07T21:44:48;16.7;96.0
22676;DHT22;12521;43.310;21.876;2023-08-07T21:49:24;16.6;96.0
22676;DHT22;12521;43.310;21.876;2023-08-07T21:54:01;16.6;96.0
22676;DHT22;12521;43.310;21.876;2023-08-07T21:58:37;16.6;96.0
22676;DHT22;12521;43.310;21.876;2023-08-07T22:03:14;16.6;96.0
22676;DHT22;12521;43.310;21.876;2023-08-07T22:07:51;16.6;96.0
22676;DHT22;12521;43.310;21.876;2023-08-07T22:12:27;16.6;96.0
22676;DHT22;12521;43.310;21.876;2023-08-07T22:17:04;16.6;96.0
22676;DHT22;12521;43.310;21.876;2023-08-07T22:21:41;16.5;96.0
22676;DHT22;12521;43.310;21.876;2023-08-07T22:26:18;16.5;96.0
22676;DHT22;12521;43.310;21.876;2023-08-07T22:30:54;16.4;96.0
22676;DHT22;12521;43.310;21.876;2023-08-07T22:35:31;16.4;96.0
22676;DHT22;12521;43.310;21.876;2023-08-07T22:40:09;16.2;96.0
22676;DHT22;12521;43.310;21.876;2023-08-07T22:44:47;16.2;96.0
22676;DHT22;12521;43.310;21.876;2023-08-07T22:49:24;16.1;96.0
22676;DHT22;12521;43.310;21.876;2023-08-07T22:54:00;16.1;96.0
22676;DHT22;12521;43.310;21.876;2023-08-07T22:58:37;16.1;96.0
22676;DHT22;12521;43.310;21.876;2023-08-07T23:03:13;16.1;96.0
22676;DHT22;12521;43.310;21.876;2023-08-07T23:07:50;16.1;96.0
22676;DHT22;12521;43.310;21.876;2023-08-07T23:12:27;16.1;96.0
22676;DHT22;12521;43.310;21.876;2023-08-07T23:17:04;16.1;96.0
22676;DHT22;12521;43.310;21.876;2023-08-07T23:21:40;15.9;96.0
22676;DHT22;12521;43.310;21.876;2023-08-07T23:26:17;15.9;96.0
22676;DHT22;12521;43.310;21.876;2023-08-07T23:30:53;15.7;96.0
22676;DHT22;12521;43.310;21.876;2023-08-07T23:35:29;15.7;96.0
22676;DHT22;12521;43.310;21.876;2023-08-07T23:40:08;15.7;96.0
22676;DHT22;12521;43.310;21.876;2023-08-07T23:44:46;15.7;96.0
22676;DHT22;12521;43.310;21.876;2023-08-07T23:49:22;15.7;96.0
22676;DHT22;12521;43.310;21.876;2023-08-07T23:53:59;15.7;96.0
22676;DHT22;12521;43.310;21.876;2023-08-07T23:58:35;15.8;96.0
